Time;durP1;ratioP1;P1;durP2;ratioP2;P2;SDS_P1;SDS_P2;PMS_P1;PMS_P2;Temp;Humidity;BMP_temperature;BMP_pressure;BME280_temperature;BME280_humidity;BME280_pressure;Samples;Min_cycle;Max_cycle;Signal;HPM_P1;HPM_P2
2022/03/08 00:00:20;;;;;;;16.52;9.70;;;;;;;;;;4982396;28;20034;-57
2022/03/08 00:02:47;;;;;;;19.15;10.98;;;;;;;;;;4980534;28;20085;-57
2022/03/08 00:05:13;;;;;;;16.05;10.38;;;;;;;;;;4986829;28;20027;-58
2022/03/08 00:07:39;;;;;;;14.77;9.90;;;;;;;;;;4985605;28;20038;-55
2022/03/08 00:10:07;;;;;;;15.55;10.48;;;;;;;;;;4985597;28;20045;-55
2022/03/08 00:12:33;;;;;;;14.38;9.93;;;;;;;;;;4969321;28;20030;-55
2022/03/08 00:14:59;;;;;;;15.60;10.32;;;;;;;;;;4986405;28;20077;-55
2022/03/08 00:17:25;;;;;;;13.70;9.52;;;;;;;;;;4984749;28;20126;-55
2022/03/08 00:19:52;;;;;;;13.38;9.50;;;;;;;;;;4984835;28;20472;-55
2022/03/08 00:22:18;;;;;;;15.88;10.13;;;;;;;;;;4983989;28;20030;-55
2022/03/08 00:24:44;;;;;;;16.65;10.20;;;;;;;;;;4985644;28;20030;-54
2022/03/08 00:27:11;;;;;;;15.80;10.05;;;;;;;;;;4983475;28;20029;-55
2022/03/08 00:29:37;;;;;;;14.52;9.52;;;;;;;;;;4985053;28;20035;-55
2022/03/08 00:32:04;;;;;;;14.82;9.38;;;;;;;;;;4984715;28;20501;-55
2022/03/08 00:34:31;;;;;;;14.13;9.23;;;;;;;;;;4985236;28;20102;-55
2022/03/08 00:36:57;;;;;;;14.93;9.55;;;;;;;;;;4985506;28;20026;-56
2022/03/08 00:39:23;;;;;;;15.07;9.82;;;;;;;;;;4985114;28;20502;-55
2022/03/08 00:41:49;;;;;;;15.35;9.77;;;;;;;;;;4985068;28;20164;-55
2022/03/08 00:44:15;;;;;;;14.95;9.98;;;;;;;;;;4983493;28;20432;-55
2022/03/08 00:46:41;;;;;;;15.45;9.75;;;;;;;;;;4985176;28;20022;-56
2022/03/08 00:49:07;;;;;;;15.13;9.68;;;;;;;;;;4986349;28;20080;-55
2022/03/08 00:51:33;;;;;;;13.00;8.80;;;;;;;;;;4986445;28;20038;-55
2022/03/08 00:53:59;;;;;;;13.38;9.15;;;;;;;;;;4989092;28;20042;-55
2022/03/08 00:56:26;;;;;;;13.98;9.20;;;;;;;;;;4987517;28;20045;-55
2022/03/08 00:58:52;;;;;;;16.67;8.98;;;;;;;;;;4988371;28;20037;-55
2022/03/08 01:01:19;;;;;;;15.57;9.82;;;;;;;;;;4989466;28;20030;-55
2022/03/08 01:03:45;;;;;;;14.63;9.50;;;;;;;;;;4993042;28;20072;-55
2022/03/08 01:06:12;;;;;;;14.38;9.38;;;;;;;;;;4986755;28;20023;-55
2022/03/08 01:08:39;;;;;;;16.73;10.77;;;;;;;;;;4987457;28;20041;-55
2022/03/08 01:11:06;;;;;;;15.70;9.77;;;;;;;;;;4985251;28;20030;-55
2022/03/08 01:13:32;;;;;;;14.95;9.77;;;;;;;;;;4987582;28;20379;-55
2022/03/08 01:15:58;;;;;;;18.58;10.52;;;;;;;;;;4987361;28;20044;-55
2022/03/08 01:18:25;;;;;;;15.85;10.38;;;;;;;;;;4986365;28;20037;-55
2022/03/08 01:20:52;;;;;;;16.38;10.13;;;;;;;;;;4987166;28;20529;-55
2022/03/08 01:23:20;;;;;;;17.05;10.43;;;;;;;;;;4988454;28;20092;-55
2022/03/08 01:25:46;;;;;;;15.55;9.80;;;;;;;;;;4987131;28;20105;-55
2022/03/08 01:28:13;;;;;;;16.20;10.43;;;;;;;;;;4987498;28;20037;-54
2022/03/08 01:30:39;;;;;;;17.63;10.95;;;;;;;;;;4987673;28;20034;-55
2022/03/08 01:33:06;;;;;;;16.02;10.40;;;;;;;;;;4986645;28;20026;-55
2022/03/08 01:35:33;;;;;;;19.77;11.55;;;;;;;;;;4987492;28;20533;-56
2022/03/08 01:37:59;;;;;;;19.10;11.38;;;;;;;;;;4987313;28;20405;-55
2022/03/08 01:40:26;;;;;;;20.20;11.73;;;;;;;;;;4987144;28;20037;-55
2022/03/08 01:42:53;;;;;;;19.08;11.45;;;;;;;;;;4986834;28;20038;-55
2022/03/08 01:45:21;;;;;;;18.40;11.10;;;;;;;;;;4987015;28;20106;-55
2022/03/08 01:47:48;;;;;;;19.75;11.45;;;;;;;;;;4986621;28;20031;-55
2022/03/08 01:50:16;;;;;;;18.02;11.63;;;;;;;;;;4986144;28;20088;-55
2022/03/08 01:52:43;;;;;;;17.58;10.80;;;;;;;;;;4988091;28;20473;-55
2022/03/08 01:55:10;;;;;;;18.20;10.68;;;;;;;;;;4986822;28;20206;-55
2022/03/08 01:57:37;;;;;;;19.30;11.48;;;;;;;;;;4987744;28;20030;-54
2022/03/08 02:00:05;;;;;;;18.48;11.02;;;;;;;;;;4986993;28;20096;-55
2022/03/08 02:02:32;;;;;;;18.20;11.60;;;;;;;;;;4987385;28;20053;-55
2022/03/08 02:04:58;;;;;;;16.48;10.27;;;;;;;;;;4986959;28;20058;-55
2022/03/08 02:07:25;;;;;;;18.92;11.65;;;;;;;;;;4986606;28;20486;-55
2022/03/08 02:09:51;;;;;;;19.00;11.00;;;;;;;;;;4984915;28;20485;-55
2022/03/08 02:12:18;;;;;;;18.63;12.00;;;;;;;;;;4986660;28;20034;-55
2022/03/08 02:14:44;;;;;;;16.65;10.77;;;;;;;;;;4987288;28;20030;-55
2022/03/08 02:17:10;;;;;;;19.10;11.80;;;;;;;;;;4986108;28;20049;-55
2022/03/08 02:19:36;;;;;;;18.10;10.93;;;;;;;;;;4972140;28;20750;-55
2022/03/08 02:22:02;;;;;;;16.80;10.88;;;;;;;;;;4987271;28;20557;-55
2022/03/08 02:24:29;;;;;;;16.48;11.00;;;;;;;;;;4988219;28;20049;-55
2022/03/08 02:26:55;;;;;;;20.25;11.35;;;;;;;;;;4987592;28;20076;-55
2022/03/08 02:29:21;;;;;;;17.02;10.98;;;;;;;;;;4988512;28;20033;-55
2022/03/08 02:31:47;;;;;;;16.55;11.10;;;;;;;;;;4986309;28;20064;-55
2022/03/08 02:34:15;;;;;;;17.05;10.73;;;;;;;;;;4987764;28;20026;-55
2022/03/08 02:36:41;;;;;;;18.33;11.20;;;;;;;;;;4985491;28;20401;-55
2022/03/08 02:39:07;;;;;;;16.13;10.90;;;;;;;;;;4987305;28;20065;-55
2022/03/08 02:41:34;;;;;;;18.25;11.10;;;;;;;;;;4986917;28;20084;-55
2022/03/08 02:44:00;;;;;;;17.17;10.75;;;;;;;;;;4986278;28;20041;-55
2022/03/08 02:46:26;;;;;;;17.05;10.57;;;;;;;;;;4987956;28;20581;-55
2022/03/08 02:48:52;;;;;;;16.35;10.18;;;;;;;;;;4987172;28;20473;-55
2022/03/08 02:51:20;;;;;;;18.00;10.95;;;;;;;;;;4986567;28;20457;-55
2022/03/08 02:53:46;;;;;;;20.58;11.95;;;;;;;;;;4987387;28;20053;-55
2022/03/08 02:56:12;;;;;;;17.25;10.80;;;;;;;;;;4987450;28;20440;-55
2022/03/08 02:58:38;;;;;;;16.33;10.80;;;;;;;;;;4986767;28;20069;-55
2022/03/08 03:01:05;;;;;;;20.42;12.23;;;;;;;;;;4986683;28;20721;-55
2022/03/08 03:03:31;;;;;;;20.52;11.93;;;;;;;;;;4987161;28;20109;-55
2022/03/08 03:05:57;;;;;;;17.95;11.02;;;;;;;;;;4987271;28;20493;-55
2022/03/08 03:08:23;;;;;;;17.85;11.02;;;;;;;;;;4987111;28;20049;-55
2022/03/08 03:10:49;;;;;;;18.52;11.57;;;;;;;;;;4985737;28;20100;-55
2022/03/08 03:13:15;;;;;;;19.10;11.77;;;;;;;;;;4986783;28;20569;-55
2022/03/08 03:15:42;;;;;;;19.13;12.40;;;;;;;;;;4986819;28;20030;-55
2022/03/08 03:18:09;;;;;;;17.88;11.60;;;;;;;;;;4987460;28;20042;-55
2022/03/08 03:20:35;;;;;;;18.15;11.93;;;;;;;;;;4987045;28;20114;-55
2022/03/08 03:23:01;;;;;;;19.10;11.93;;;;;;;;;;4985813;28;20621;-55
2022/03/08 03:25:27;;;;;;;17.70;11.52;;;;;;;;;;4987744;28;20710;-55
2022/03/08 03:27:53;;;;;;;20.38;12.85;;;;;;;;;;4986505;28;20634;-55
2022/03/08 03:30:19;;;;;;;18.40;11.80;;;;;;;;;;4986755;28;20030;-55
2022/03/08 03:32:45;;;;;;;18.05;11.90;;;;;;;;;;4986600;28;20439;-56
2022/03/08 03:35:12;;;;;;;20.52;12.65;;;;;;;;;;4986383;28;20029;-55
2022/03/08 03:37:39;;;;;;;18.13;11.65;;;;;;;;;;4986405;28;20046;-55
2022/03/08 03:40:05;;;;;;;18.02;11.80;;;;;;;;;;4968726;28;20037;-55
2022/03/08 03:42:32;;;;;;;19.98;12.43;;;;;;;;;;4984766;28;20034;-55
2022/03/08 03:44:58;;;;;;;20.25;12.75;;;;;;;;;;4986424;28;20034;-55
2022/03/08 03:47:24;;;;;;;20.38;12.93;;;;;;;;;;4967726;28;20473;-55
2022/03/08 03:49:50;;;;;;;19.63;12.65;;;;;;;;;;4986174;28;20030;-55
2022/03/08 03:52:16;;;;;;;19.10;11.85;;;;;;;;;;4985694;28;20664;-55
2022/03/08 03:54:42;;;;;;;21.20;12.93;;;;;;;;;;4986959;28;20030;-55
2022/03/08 03:57:11;;;;;;;20.42;12.05;;;;;;;;;;4985377;28;20034;-55
2022/03/08 03:59:38;;;;;;;18.20;11.45;;;;;;;;;;4986773;28;20113;-54
2022/03/08 04:02:04;;;;;;;19.35;11.88;;;;;;;;;;4986132;28;20026;-53
2022/03/08 04:04:30;;;;;;;19.10;11.85;;;;;;;;;;4985587;28;20527;-55
2022/03/08 04:06:56;;;;;;;19.90;11.70;;;;;;;;;;4987056;28;20464;-55
2022/03/08 04:09:22;;;;;;;18.77;11.55;;;;;;;;;;4986145;28;20421;-55
2022/03/08 04:11:48;;;;;;;17.65;11.15;;;;;;;;;;4985494;28;20070;-55
2022/03/08 04:14:15;;;;;;;20.85;12.07;;;;;;;;;;4986010;28;20084;-55
2022/03/08 04:16:41;;;;;;;18.95;10.98;;;;;;;;;;4986348;28;20038;-55
2022/03/08 04:19:07;;;;;;;17.73;11.32;;;;;;;;;;4985982;28;20109;-55
2022/03/08 04:21:34;;;;;;;19.45;12.20;;;;;;;;;;4984553;28;20034;-55
2022/03/08 04:24:00;;;;;;;20.10;11.43;;;;;;;;;;4988817;28;20031;-55
2022/03/08 04:26:27;;;;;;;21.83;12.77;;;;;;;;;;4989624;28;20092;-55
2022/03/08 04:28:53;;;;;;;19.92;11.95;;;;;;;;;;4990559;28;20026;-54
2022/03/08 04:31:19;;;;;;;19.40;11.85;;;;;;;;;;4990059;28;20133;-55
2022/03/08 04:33:45;;;;;;;18.13;11.30;;;;;;;;;;4972393;28;20416;-55
2022/03/08 04:36:11;;;;;;;21.73;12.80;;;;;;;;;;4988980;28;20572;-55
2022/03/08 04:38:37;;;;;;;19.88;12.10;;;;;;;;;;4989690;28;20029;-55
2022/03/08 04:41:05;;;;;;;20.27;12.23;;;;;;;;;;4988709;28;20126;-55
2022/03/08 04:43:31;;;;;;;19.02;12.35;;;;;;;;;;4988271;28;20057;-55
2022/03/08 04:45:57;;;;;;;19.20;12.13;;;;;;;;;;4988889;28;20037;-55
2022/03/08 04:48:24;;;;;;;18.85;11.70;;;;;;;;;;4990369;28;20019;-55
2022/03/08 04:50:50;;;;;;;19.00;11.20;;;;;;;;;;4989097;28;20065;-55
2022/03/08 04:53:16;;;;;;;19.08;11.65;;;;;;;;;;4989055;28;20034;-55
2022/03/08 04:55:42;;;;;;;19.95;12.52;;;;;;;;;;4989684;28;20077;-55
2022/03/08 04:58:08;;;;;;;20.98;12.45;;;;;;;;;;4987013;28;20520;-55
2022/03/08 05:00:34;;;;;;;18.42;11.88;;;;;;;;;;4988306;28;20030;-55
2022/03/08 05:03:01;;;;;;;19.95;12.23;;;;;;;;;;4988615;28;20110;-55
2022/03/08 05:05:29;;;;;;;22.15;12.50;;;;;;;;;;4989681;28;20034;-55
2022/03/08 05:07:56;;;;;;;19.58;12.38;;;;;;;;;;4989215;28;20097;-55
2022/03/08 05:10:22;;;;;;;16.63;10.65;;;;;;;;;;4989310;28;20489;-55
2022/03/08 05:12:48;;;;;;;19.48;12.45;;;;;;;;;;4987643;28;20088;-55
2022/03/08 05:15:14;;;;;;;19.83;12.07;;;;;;;;;;4987887;28;20089;-58
2022/03/08 05:17:40;;;;;;;18.58;11.70;;;;;;;;;;4988520;28;20109;-55
2022/03/08 05:20:07;;;;;;;17.83;11.35;;;;;;;;;;4970806;28;20757;-56
2022/03/08 05:22:33;;;;;;;19.13;12.25;;;;;;;;;;4988321;28;20030;-56
2022/03/08 05:24:59;;;;;;;20.27;12.52;;;;;;;;;;4988011;28;20042;-56
2022/03/08 05:27:25;;;;;;;18.40;12.02;;;;;;;;;;4989652;28;20470;-56
2022/03/08 05:29:51;;;;;;;18.02;11.40;;;;;;;;;;4988096;28;20065;-56
2022/03/08 05:32:18;;;;;;;20.70;13.00;;;;;;;;;;4970378;28;20069;-56
2022/03/08 05:34:44;;;;;;;19.67;12.73;;;;;;;;;;4986683;28;20031;-56
2022/03/08 05:37:10;;;;;;;20.25;12.73;;;;;;;;;;4988311;28;20373;-56
2022/03/08 05:39:36;;;;;;;21.55;12.15;;;;;;;;;;4987717;28;20042;-56
2022/03/08 05:42:03;;;;;;;20.10;12.73;;;;;;;;;;4988313;28;20674;-55
2022/03/08 05:44:29;;;;;;;19.55;12.50;;;;;;;;;;4988988;28;20034;-56
2022/03/08 05:46:55;;;;;;;18.33;11.85;;;;;;;;;;4986931;28;20504;-56
2022/03/08 05:49:22;;;;;;;20.40;12.57;;;;;;;;;;4987834;28;20038;-56
2022/03/08 05:51:48;;;;;;;19.95;12.65;;;;;;;;;;4987459;28;20513;-56
2022/03/08 05:54:15;;;;;;;18.80;11.98;;;;;;;;;;4988623;28;20041;-56
2022/03/08 05:56:41;;;;;;;20.75;12.80;;;;;;;;;;4988020;28;20409;-55
2022/03/08 05:59:07;;;;;;;19.38;12.48;;;;;;;;;;4988598;28;20034;-56
2022/03/08 06:01:33;;;;;;;18.75;11.48;;;;;;;;;;4987634;28;20509;-56
2022/03/08 06:03:59;;;;;;;19.25;12.52;;;;;;;;;;4987729;28;20040;-56
2022/03/08 06:06:25;;;;;;;20.08;12.60;;;;;;;;;;4987938;28;20636;-56
2022/03/08 06:08:51;;;;;;;20.30;12.93;;;;;;;;;;4988136;28;20121;-56
2022/03/08 06:11:18;;;;;;;21.95;13.27;;;;;;;;;;4986619;28;20026;-56
2022/03/08 06:13:44;;;;;;;19.33;12.07;;;;;;;;;;4986809;28;20046;-57
2022/03/08 06:16:10;;;;;;;20.35;12.27;;;;;;;;;;4984607;28;20497;-56
2022/03/08 06:18:36;;;;;;;20.63;12.60;;;;;;;;;;4985882;28;20578;-56
2022/03/08 06:21:02;;;;;;;18.77;12.25;;;;;;;;;;4984925;28;20088;-56
2022/03/08 06:23:28;;;;;;;20.40;13.30;;;;;;;;;;4986982;28;20637;-56
2022/03/08 06:25:54;;;;;;;18.20;11.95;;;;;;;;;;4986282;28;20030;-56
2022/03/08 06:28:21;;;;;;;20.45;12.18;;;;;;;;;;4988319;28;20030;-56
2022/03/08 06:30:47;;;;;;;18.50;11.63;;;;;;;;;;4987078;28;20133;-56
2022/03/08 06:33:13;;;;;;;17.88;11.73;;;;;;;;;;4988805;28;20060;-56
2022/03/08 06:35:39;;;;;;;20.42;12.35;;;;;;;;;;4990055;28;20173;-56
2022/03/08 06:38:05;;;;;;;19.67;12.75;;;;;;;;;;4987115;28;20064;-56
2022/03/08 06:40:32;;;;;;;19.10;12.15;;;;;;;;;;4987322;28;20108;-56
2022/03/08 06:42:58;;;;;;;20.98;13.30;;;;;;;;;;4987710;28;20104;-56
2022/03/08 06:45:24;;;;;;;20.55;12.43;;;;;;;;;;4988060;28;20512;-56
2022/03/08 06:47:50;;;;;;;20.00;12.50;;;;;;;;;;4977121;28;20375;-56
2022/03/08 06:50:16;;;;;;;19.65;12.63;;;;;;;;;;4987256;28;20117;-56
2022/03/08 06:52:42;;;;;;;20.35;12.52;;;;;;;;;;4987970;28;20049;-56
2022/03/08 06:55:10;;;;;;;20.67;12.98;;;;;;;;;;4981665;28;20030;-56
2022/03/08 06:57:37;;;;;;;19.27;12.23;;;;;;;;;;4976749;28;20125;-56
2022/03/08 07:00:04;;;;;;;19.48;11.73;;;;;;;;;;4987100;28;20243;-56
2022/03/08 07:02:30;;;;;;;20.63;12.43;;;;;;;;;;4987865;28;20041;-56
2022/03/08 07:04:56;;;;;;;20.05;12.88;;;;;;;;;;4987125;28;20566;-56
2022/03/08 07:07:22;;;;;;;21.67;13.05;;;;;;;;;;4988297;28;20473;-56
2022/03/08 07:09:49;;;;;;;20.83;12.85;;;;;;;;;;4988309;28;20156;-56
2022/03/08 07:12:15;;;;;;;20.90;12.20;;;;;;;;;;4979804;28;20053;-56
2022/03/08 07:14:41;;;;;;;19.30;12.50;;;;;;;;;;4988463;28;20477;-56
2022/03/08 07:17:08;;;;;;;20.55;12.75;;;;;;;;;;4987869;28;20125;-56
2022/03/08 07:19:34;;;;;;;18.17;12.90;;;;;;;;;;4988355;28;20030;-56
2022/03/08 07:22:00;;;;;;;20.30;11.82;;;;;;;;;;4986250;28;20413;-56
2022/03/08 07:24:26;;;;;;;20.23;12.52;;;;;;;;;;4986504;28;20026;-56
2022/03/08 07:26:52;;;;;;;19.73;12.55;;;;;;;;;;4983303;28;20035;-54
2022/03/08 07:29:18;;;;;;;18.50;11.98;;;;;;;;;;4988009;28;20460;-55
2022/03/08 07:31:44;;;;;;;17.85;12.00;;;;;;;;;;4988079;28;20108;-56
2022/03/08 07:34:10;;;;;;;19.30;12.88;;;;;;;;;;4988231;28;20473;-56
2022/03/08 07:36:38;;;;;;;17.90;11.50;;;;;;;;;;4987209;28;20425;-56
2022/03/08 07:39:04;;;;;;;16.45;11.15;;;;;;;;;;4986845;28;20030;-57
2022/03/08 07:41:30;;;;;;;19.17;11.88;;;;;;;;;;4985649;28;20109;-56
2022/03/08 07:43:56;;;;;;;15.43;10.35;;;;;;;;;;4986265;28;20050;-58
2022/03/08 07:46:22;;;;;;;20.25;11.90;;;;;;;;;;4987205;28;20388;-56
2022/03/08 07:48:49;;;;;;;18.35;11.23;;;;;;;;;;4986034;28;20037;-56
2022/03/08 07:51:15;;;;;;;16.83;11.02;;;;;;;;;;4986805;28;20077;-56
2022/03/08 07:53:42;;;;;;;15.40;10.32;;;;;;;;;;4985896;28;20022;-56
2022/03/08 07:56:08;;;;;;;16.77;10.63;;;;;;;;;;4988724;28;20034;-56
2022/03/08 07:58:37;;;;;;;15.13;9.95;;;;;;;;;;4985183;28;20414;-56
2022/03/08 08:01:05;;;;;;;13.32;9.15;;;;;;;;;;4985539;28;20509;-55
2022/03/08 08:03:31;;;;;;;16.08;10.07;;;;;;;;;;4980749;28;20092;-56
2022/03/08 08:05:57;;;;;;;14.60;9.38;;;;;;;;;;4984718;28;20042;-56
2022/03/08 08:08:24;;;;;;;14.27;9.43;;;;;;;;;;4985365;28;20077;-56
2022/03/08 08:10:50;;;;;;;14.25;9.75;;;;;;;;;;4984218;28;20409;-56
2022/03/08 08:13:16;;;;;;;14.15;9.38;;;;;;;;;;4984735;28;20496;-55
2022/03/08 08:15:42;;;;;;;14.45;9.70;;;;;;;;;;4983932;28;20304;-56
2022/03/08 08:18:09;;;;;;;14.55;9.20;;;;;;;;;;4985407;28;20034;-56
2022/03/08 08:20:35;;;;;;;12.75;8.52;;;;;;;;;;4984608;28;20088;-55
2022/03/08 08:23:01;;;;;;;13.07;8.32;;;;;;;;;;4985396;28;20034;-56
2022/03/08 08:25:27;;;;;;;12.23;8.55;;;;;;;;;;4985289;28;20457;-56
2022/03/08 08:27:53;;;;;;;15.23;9.20;;;;;;;;;;4985423;28;20026;-56
2022/03/08 08:30:19;;;;;;;13.77;9.40;;;;;;;;;;4985072;28;20023;-54
2022/03/08 08:32:46;;;;;;;13.63;9.38;;;;;;;;;;4985466;28;20401;-56
2022/03/08 08:35:12;;;;;;;16.88;9.73;;;;;;;;;;4985194;28;20034;-56
2022/03/08 08:37:39;;;;;;;12.60;7.95;;;;;;;;;;4985300;28;20105;-56
2022/03/08 08:40:06;;;;;;;11.95;8.35;;;;;;;;;;4984767;28;20117;-56
2022/03/08 08:42:32;;;;;;;10.93;8.10;;;;;;;;;;4984911;28;20041;-56
2022/03/08 08:44:59;;;;;;;12.82;8.35;;;;;;;;;;4984995;28;20034;-56
2022/03/08 08:47:26;;;;;;;11.90;8.13;;;;;;;;;;4985763;28;20018;-55
2022/03/08 08:49:52;;;;;;;12.43;8.40;;;;;;;;;;4985200;28;20418;-56
2022/03/08 08:52:18;;;;;;;12.05;7.53;;;;;;;;;;4985007;28;20047;-56
2022/03/08 08:54:47;;;;;;;11.75;7.28;;;;;;;;;;4985013;28;20035;-56
2022/03/08 08:57:13;;;;;;;12.18;7.90;;;;;;;;;;4984741;28;20026;-56
2022/03/08 08:59:40;;;;;;;12.75;7.63;;;;;;;;;;4984906;28;20035;-56
2022/03/08 09:02:07;;;;;;;11.88;7.45;;;;;;;;;;4984494;28;20517;-56
2022/03/08 09:04:36;;;;;;;9.35;6.55;;;;;;;;;;4984958;28;20120;-56
2022/03/08 09:07:02;;;;;;;10.13;6.68;;;;;;;;;;4984392;28;20070;-56
2022/03/08 09:09:28;;;;;;;11.85;7.20;;;;;;;;;;4985465;28;20104;-56
2022/03/08 09:11:54;;;;;;;12.73;8.02;;;;;;;;;;4988853;28;20022;-56
2022/03/08 09:14:21;;;;;;;10.82;6.88;;;;;;;;;;4988336;28;20541;-56
2022/03/08 09:16:47;;;;;;;9.48;6.32;;;;;;;;;;4988300;28;20513;-56
2022/03/08 09:19:14;;;;;;;8.35;5.40;;;;;;;;;;4988273;28;20038;-55
2022/03/08 09:21:41;;;;;;;7.15;4.97;;;;;;;;;;4988088;28;20519;-56
2022/03/08 09:24:07;;;;;;;8.25;5.45;;;;;;;;;;4987901;28;20068;-56
2022/03/08 09:26:33;;;;;;;10.07;6.25;;;;;;;;;;4988313;28;20545;-56
2022/03/08 09:28:59;;;;;;;7.90;4.97;;;;;;;;;;4987947;28;20038;-56
2022/03/08 09:31:25;;;;;;;7.95;5.28;;;;;;;;;;4988578;28;20097;-56
2022/03/08 09:33:52;;;;;;;10.95;6.57;;;;;;;;;;4988518;28;20030;-56
2022/03/08 09:36:18;;;;;;;8.90;5.68;;;;;;;;;;4988126;28;20026;-56
2022/03/08 09:38:45;;;;;;;8.40;5.65;;;;;;;;;;4988130;28;20029;-56
2022/03/08 09:41:13;;;;;;;9.70;5.95;;;;;;;;;;4987598;28;20094;-56
2022/03/08 09:43:39;;;;;;;7.72;5.50;;;;;;;;;;4988034;28;20065;-56
2022/03/08 09:46:06;;;;;;;11.00;6.80;;;;;;;;;;4986471;28;20133;-56
2022/03/08 09:48:32;;;;;;;8.80;5.63;;;;;;;;;;4987933;28;20038;-56
2022/03/08 09:51:02;;;;;;;9.85;6.05;;;;;;;;;;4987492;28;20041;-56
2022/03/08 09:53:32;;;;;;;10.05;5.97;;;;;;;;;;4987834;28;20105;-56
2022/03/08 09:56:04;;;;;;;9.15;5.80;;;;;;;;;;4987160;28;20101;-56
2022/03/08 09:58:35;;;;;;;12.07;6.68;;;;;;;;;;4987936;28;20030;-57
2022/03/08 10:01:02;;;;;;;11.23;6.45;;;;;;;;;;4987408;28;20569;-57
2022/03/08 10:03:34;;;;;;;9.23;5.82;;;;;;;;;;4986287;28;20129;-57
2022/03/08 10:06:01;;;;;;;13.85;7.50;;;;;;;;;;4987367;28;20019;-57
2022/03/08 10:08:28;;;;;;;12.95;7.13;;;;;;;;;;4987766;28;20505;-57
2022/03/08 10:11:12;;;;;;;14.35;7.97;;;;;;;;;;4987780;28;20394;-57
2022/03/08 10:13:45;;;;;;;14.75;8.05;;;;;;;;;;4987545;28;20141;-57
2022/03/08 10:16:25;;;;;;;15.02;8.02;;;;;;;;;;4987224;28;20105;-57
2022/03/08 10:18:59;;;;;;;15.00;8.52;;;;;;;;;;4987238;28;20031;-57
2022/03/08 10:21:25;;;;;;;13.68;7.35;;;;;;;;;;4987816;28;20061;-57
2022/03/08 10:23:52;;;;;;;14.38;8.52;;;;;;;;;;4987038;28;20497;-56
2022/03/08 10:26:19;;;;;;;14.57;8.80;;;;;;;;;;4986951;28;20125;-57
2022/03/08 10:28:49;;;;;;;17.70;10.15;;;;;;;;;;4987130;28;20026;-57
2022/03/08 10:31:16;;;;;;;15.50;8.98;;;;;;;;;;4987033;28;20053;-56
2022/03/08 10:33:42;;;;;;;15.25;8.73;;;;;;;;;;4987215;28;20105;-56
2022/03/08 10:36:16;;;;;;;16.63;8.38;;;;;;;;;;4987170;28;20452;-57
2022/03/08 10:39:02;;;;;;;13.27;7.63;;;;;;;;;;4987005;28;20134;-57
2022/03/08 10:41:29;;;;;;;12.45;7.35;;;;;;;;;;4976400;28;20050;-56
2022/03/08 10:43:56;;;;;;;15.13;8.55;;;;;;;;;;4987483;28;20049;-55
2022/03/08 10:46:24;;;;;;;14.93;8.43;;;;;;;;;;4987255;28;20019;-56
2022/03/08 10:48:53;;;;;;;13.20;8.32;;;;;;;;;;4986548;28;20029;-56
2022/03/08 10:51:20;;;;;;;15.05;8.13;;;;;;;;;;4986623;28;20037;-54
2022/03/08 10:53:47;;;;;;;16.13;9.82;;;;;;;;;;4986458;28;20556;-55
2022/03/08 10:56:20;;;;;;;15.35;9.20;;;;;;;;;;4986678;28;20022;-56
2022/03/08 10:58:49;;;;;;;14.95;8.80;;;;;;;;;;4986666;28;20034;-56
2022/03/08 11:01:15;;;;;;;12.88;7.82;;;;;;;;;;4986653;28;20034;-56
2022/03/08 11:03:54;;;;;;;12.63;7.53;;;;;;;;;;4986550;28;20105;-56
2022/03/08 11:06:20;;;;;;;13.65;8.35;;;;;;;;;;4986347;28;20057;-56
2022/03/08 11:08:46;;;;;;;11.00;7.10;;;;;;;;;;4986748;28;20439;-56
2022/03/08 11:11:14;;;;;;;11.10;7.13;;;;;;;;;;4986142;28;20453;-56
2022/03/08 11:13:42;;;;;;;11.88;6.22;;;;;;;;;;4986212;28;20109;-56
2022/03/08 11:16:10;;;;;;;9.27;5.90;;;;;;;;;;4986229;28;20085;-56
2022/03/08 11:18:36;;;;;;;11.25;6.22;;;;;;;;;;4986311;28;20034;-56
2022/03/08 11:21:03;;;;;;;9.02;5.97;;;;;;;;;;4985812;28;20053;-57
2022/03/08 11:23:31;;;;;;;11.52;6.45;;;;;;;;;;4986197;28;20030;-56
2022/03/08 11:25:59;;;;;;;8.23;6.00;;;;;;;;;;4985555;28;20027;-56
2022/03/08 11:28:25;;;;;;;9.13;5.63;;;;;;;;;;4986929;28;20030;-56
2022/03/08 11:30:56;;;;;;;10.35;6.47;;;;;;;;;;4985595;28;20101;-57
2022/03/08 11:33:41;;;;;;;7.70;4.85;;;;;;;;;;4986109;28;21056;-56
2022/03/08 11:36:23;;;;;;;8.15;5.63;;;;;;;;;;4985651;28;20034;-57
2022/03/08 11:39:07;;;;;;;10.25;6.28;;;;;;;;;;4985690;28;20096;-57
2022/03/08 11:41:33;;;;;;;9.77;5.60;;;;;;;;;;4985678;28;20030;-57
2022/03/08 11:43:59;;;;;;;11.00;5.68;;;;;;;;;;4985301;28;20060;-56
2022/03/08 11:46:25;;;;;;;8.63;5.93;;;;;;;;;;4986365;28;20023;-56
2022/03/08 11:48:54;;;;;;;8.55;5.85;;;;;;;;;;4985660;28;20430;-56
2022/03/08 11:51:23;;;;;;;6.68;4.70;;;;;;;;;;4985445;28;20049;-57
2022/03/08 11:53:59;;;;;;;5.57;4.40;;;;;;;;;;4985367;28;20027;-57
2022/03/08 11:56:26;;;;;;;9.52;5.03;;;;;;;;;;4986344;28;20386;-57
2022/03/08 11:58:52;;;;;;;5.55;4.15;;;;;;;;;;4985393;28;20034;-57
2022/03/08 12:01:25;;;;;;;7.38;5.00;;;;;;;;;;4985512;28;20035;-56
2022/03/08 12:03:55;;;;;;;8.65;5.15;;;;;;;;;;4985289;28;20041;-57
2022/03/08 12:06:35;;;;;;;8.88;5.90;;;;;;;;;;4985520;28;20027;-57
2022/03/08 12:09:22;;;;;;;9.32;5.78;;;;;;;;;;4985415;28;20048;-57
2022/03/08 12:11:52;;;;;;;9.35;5.93;;;;;;;;;;4985053;28;20502;-57
2022/03/08 12:14:20;;;;;;;6.57;4.53;;;;;;;;;;4985287;28;20514;-57
2022/03/08 12:16:48;;;;;;;6.68;4.32;;;;;;;;;;4985492;28;20084;-57
2022/03/08 12:19:35;;;;;;;8.35;5.13;;;;;;;;;;4985198;28;20023;-57
2022/03/08 12:22:03;;;;;;;9.65;6.40;;;;;;;;;;4984889;28;20110;-58
2022/03/08 12:24:39;;;;;;;9.65;5.18;;;;;;;;;;4985128;28;20026;-57
2022/03/08 12:27:07;;;;;;;9.88;5.97;;;;;;;;;;4984990;28;20469;-57
2022/03/08 12:29:36;;;;;;;10.27;6.32;;;;;;;;;;4985371;28;20393;-57
2022/03/08 12:32:06;;;;;;;9.93;5.80;;;;;;;;;;4984751;28;20100;-57
2022/03/08 12:34:47;;;;;;;10.15;5.82;;;;;;;;;;4983972;28;20036;-57
2022/03/08 12:37:18;;;;;;;9.98;6.40;;;;;;;;;;4985204;28;20414;-56
2022/03/08 12:39:50;;;;;;;9.60;6.22;;;;;;;;;;4984999;28;20178;-57
2022/03/08 12:42:20;;;;;;;7.40;5.35;;;;;;;;;;4985020;28;20088;-57
2022/03/08 12:45:10;;;;;;;8.65;5.60;;;;;;;;;;4986112;28;20663;-57
2022/03/08 12:47:39;;;;;;;12.52;7.50;;;;;;;;;;4981306;28;20118;-57
2022/03/08 12:50:16;;;;;;;10.65;5.97;;;;;;;;;;4988340;28;20387;-58
2022/03/08 12:52:53;;;;;;;8.48;5.85;;;;;;;;;;4988874;28;20054;-57
2022/03/08 12:55:20;;;;;;;7.88;5.22;;;;;;;;;;4988617;28;20030;-57
2022/03/08 12:57:46;;;;;;;6.45;4.90;;;;;;;;;;4988954;28;20040;-57
2022/03/08 13:00:23;;;;;;;9.18;5.68;;;;;;;;;;4988751;28;20018;-57
2022/03/08 13:02:49;;;;;;;10.00;6.60;;;;;;;;;;4988861;28;20023;-57
2022/03/08 13:05:15;;;;;;;12.60;6.30;;;;;;;;;;4988785;28;20080;-58
2022/03/08 13:07:53;;;;;;;9.25;5.43;;;;;;;;;;4988552;28;20053;-57
2022/03/08 13:10:20;;;;;;;8.15;5.32;;;;;;;;;;4988088;28;20053;-58
2022/03/08 13:12:57;;;;;;;10.15;6.95;;;;;;;;;;4984518;28;20041;-57
2022/03/08 13:15:24;;;;;;;10.75;7.35;;;;;;;;;;4989916;28;20034;-57
2022/03/08 13:18:00;;;;;;;10.02;6.22;;;;;;;;;;4979209;28;20085;-57
2022/03/08 13:20:39;;;;;;;8.68;5.97;;;;;;;;;;4988905;28;20077;-57
2022/03/08 13:23:05;;;;;;;7.68;5.18;;;;;;;;;;4989678;28;20045;-57
2022/03/08 13:25:32;;;;;;;10.77;6.00;;;;;;;;;;4989669;28;20405;-56
2022/03/08 13:28:03;;;;;;;7.10;4.75;;;;;;;;;;4989560;28;20033;-56
2022/03/08 13:30:32;;;;;;;7.57;5.35;;;;;;;;;;4988899;28;20026;-56
2022/03/08 13:33:17;;;;;;;8.63;5.55;;;;;;;;;;4988406;28;20046;-55
2022/03/08 13:35:46;;;;;;;7.43;5.00;;;;;;;;;;4984125;28;20022;-56
2022/03/08 13:38:16;;;;;;;7.28;4.90;;;;;;;;;;4985528;28;20053;-56
2022/03/08 13:40:42;;;;;;;7.55;5.07;;;;;;;;;;4987254;28;20054;-52
2022/03/08 13:43:09;;;;;;;6.75;4.57;;;;;;;;;;4985718;28;20030;-56
2022/03/08 13:45:36;;;;;;;6.50;4.40;;;;;;;;;;4970233;28;20042;-56
2022/03/08 13:48:03;;;;;;;9.18;5.05;;;;;;;;;;4986869;28;20584;-51
2022/03/08 13:50:29;;;;;;;6.05;4.43;;;;;;;;;;4986468;28;20026;-55
2022/03/08 13:52:56;;;;;;;6.88;4.22;;;;;;;;;;4987845;28;20038;-56
2022/03/08 13:55:29;;;;;;;6.40;4.50;;;;;;;;;;4983174;28;20033;-55
2022/03/08 13:58:06;;;;;;;6.72;4.80;;;;;;;;;;4985511;28;20032;-55
2022/03/08 14:00:34;;;;;;;6.53;4.75;;;;;;;;;;4982561;28;20061;-55
2022/03/08 14:03:01;;;;;;;7.43;5.00;;;;;;;;;;4982436;28;20097;-53
2022/03/08 14:05:29;;;;;;;7.07;5.00;;;;;;;;;;4985712;28;20506;-56
2022/03/08 14:08:02;;;;;;;12.10;6.22;;;;;;;;;;4986327;28;20565;-54
2022/03/08 14:10:29;;;;;;;7.82;4.95;;;;;;;;;;4980940;28;20034;-53
2022/03/08 14:12:58;;;;;;;9.93;5.93;;;;;;;;;;4979504;28;20061;-55
2022/03/08 14:15:24;;;;;;;6.32;4.03;;;;;;;;;;4985544;28;20065;-55
2022/03/08 14:18:08;;;;;;;6.90;4.47;;;;;;;;;;4967853;28;20042;-56
2022/03/08 14:20:38;;;;;;;5.65;3.70;;;;;;;;;;4984326;28;20034;-55
2022/03/08 14:23:07;;;;;;;6.78;4.32;;;;;;;;;;4968551;28;20030;-56
2022/03/08 14:25:34;;;;;;;5.88;4.05;;;;;;;;;;4971703;28;20040;-55
2022/03/08 14:28:00;;;;;;;6.78;4.78;;;;;;;;;;4986840;28;20130;-54